Time;durP1;ratioP1;P1;durP2;ratioP2;P2;SDS_P1;SDS_P2;PMS_P1;PMS_P2;Temp;Humidity;BMP_temperature;BMP_pressure;BME280_temperature;BME280_humidity;BME280_pressure;Samples;Min_cycle;Max_cycle;Signal;HPM_P1;HPM_P2
2022/06/25 00:00:44;;;;;;;0.80;0.80;;;;;;;14.86;100.00;96182.06;4949454;28;20215;-76
2022/06/25 00:03:11;;;;;;;0.70;0.70;;;;;;;14.87;100.00;96178.25;4955100;28;20208;-75
2022/06/25 00:05:38;;;;;;;1.80;0.80;;;;;;;14.94;100.00;96182.38;4961814;28;20223;-75
2022/06/25 00:08:05;;;;;;;1.00;0.70;;;;;;;14.95;100.00;96178.59;4948807;28;20219;-75
2022/06/25 00:10:32;;;;;;;0.93;0.83;;;;;;;14.84;100.00;96185.03;4962429;28;20220;-76
2022/06/25 00:12:58;;;;;;;0.90;0.90;;;;;;;14.80;100.00;96181.19;4946433;28;20209;-75
2022/06/25 00:15:25;;;;;;;2.60;1.00;;;;;;;14.77;100.00;96176.28;4964236;28;20239;-75
2022/06/25 00:17:54;;;;;;;1.97;0.83;;;;;;;14.79;100.00;96179.56;4964718;28;20299;-76
2022/06/25 00:20:21;;;;;;;1.37;0.70;;;;;;;14.78;100.00;96180.63;4947086;28;20311;-75
2022/06/25 00:22:48;;;;;;;2.50;0.70;;;;;;;14.85;100.00;96178.50;4938535;28;20205;-75
2022/06/25 00:25:16;;;;;;;1.73;0.70;;;;;;;14.85;100.00;96183.94;4946818;28;20204;-75
2022/06/25 00:27:43;;;;;;;0.70;0.70;;;;;;;14.91;100.00;96192.94;4948695;28;20209;-75
2022/06/25 00:30:10;;;;;;;0.60;0.60;;;;;;;14.88;100.00;96188.88;4948838;28;20315;-75
2022/06/25 00:32:37;;;;;;;0.70;0.70;;;;;;;14.88;100.00;96190.78;4940312;28;20214;-75
2022/06/25 00:35:07;;;;;;;1.20;0.70;;;;;;;14.90;100.00;96183.16;4938072;28;20236;-75
2022/06/25 00:37:34;;;;;;;2.23;0.90;;;;;;;14.91;100.00;96185.63;4951082;28;20205;-75
2022/06/25 00:40:01;;;;;;;2.50;0.90;;;;;;;14.95;100.00;96184.03;4954316;28;20332;-75
2022/06/25 00:42:28;;;;;;;2.10;0.60;;;;;;;14.96;100.00;96187.56;4965754;28;20208;-75
2022/06/25 00:44:56;;;;;;;1.33;0.70;;;;;;;15.01;100.00;96188.41;4966530;28;20224;-76
2022/06/25 00:47:23;;;;;;;1.47;0.60;;;;;;;14.92;100.00;96189.97;4960077;28;20221;-75
2022/06/25 00:49:52;;;;;;;1.17;0.70;;;;;;;14.90;100.00;96194.03;4948355;28;20309;-75
2022/06/25 00:52:23;;;;;;;1.83;0.70;;;;;;;14.87;100.00;96192.66;4950452;28;20204;-75
2022/06/25 00:54:53;;;;;;;1.13;0.60;;;;;;;14.86;100.00;96191.03;4968493;28;20350;-75
2022/06/25 00:57:24;;;;;;;0.80;0.80;;;;;;;14.84;100.00;96187.75;4947408;28;20261;-76
2022/06/25 00:59:53;;;;;;;0.70;0.70;;;;;;;14.79;100.00;96184.19;4952408;28;20304;-76
2022/06/25 01:02:21;;;;;;;0.70;0.70;;;;;;;14.70;100.00;96181.94;4952524;28;20211;-75
2022/06/25 01:04:49;;;;;;;0.90;0.80;;;;;;;14.66;100.00;96186.25;4965953;28;20331;-74
2022/06/25 01:07:16;;;;;;;1.33;0.90;;;;;;;14.69;100.00;96184.91;4970028;28;20243;-75
2022/06/25 01:09:46;;;;;;;1.63;0.90;;;;;;;14.69;100.00;96191.19;4952230;28;20247;-75
2022/06/25 01:12:14;;;;;;;0.57;0.57;;;;;;;14.68;100.00;96177.84;4951401;28;20224;-75
2022/06/25 01:14:42;;;;;;;1.10;0.80;;;;;;;14.65;100.00;96186.50;4954677;28;20308;-75
2022/06/25 01:17:10;;;;;;;1.37;0.70;;;;;;;14.54;100.00;96172.03;4963394;28;20201;-75
2022/06/25 01:19:38;;;;;;;1.17;0.70;;;;;;;14.59;100.00;96191.09;4951444;28;20232;-75
2022/06/25 01:22:08;;;;;;;2.30;0.90;;;;;;;14.58;100.00;96183.19;4951605;28;20204;-75
2022/06/25 01:24:36;;;;;;;2.53;0.70;;;;;;;14.62;100.00;96179.72;4944346;28;20316;-76
2022/06/25 01:27:13;;;;;;;4.33;1.10;;;;;;;14.71;100.00;96188.19;4947187;28;20217;-75
2022/06/25 01:29:40;;;;;;;2.63;0.87;;;;;;;14.63;100.00;96183.25;4945733;28;20208;-75
2022/06/25 01:32:07;;;;;;;1.00;0.90;;;;;;;14.53;100.00;96175.00;4947155;28;20201;-75
2022/06/25 01:34:34;;;;;;;2.00;1.00;;;;;;;14.42;100.00;96174.09;4950998;28;20264;-75
2022/06/25 01:37:03;;;;;;;0.90;0.90;;;;;;;14.37;100.00;96174.81;4965067;28;20211;-76
2022/06/25 01:39:32;;;;;;;5.07;1.20;;;;;;;14.47;100.00;96173.31;4962076;28;20209;-75
2022/06/25 01:41:59;;;;;;;0.80;0.80;;;;;;;14.44;100.00;96171.94;4966174;28;20211;-75
2022/06/25 01:44:26;;;;;;;0.70;0.70;;;;;;;14.50;100.00;96173.63;4962797;28;20236;-75
2022/06/25 01:46:53;;;;;;;2.07;0.70;;;;;;;14.52;100.00;96174.19;4943749;28;20208;-75
2022/06/25 01:49:20;;;;;;;1.63;0.90;;;;;;;14.47;100.00;96176.03;4966136;28;20317;-76
2022/06/25 01:51:47;;;;;;;0.70;0.70;;;;;;;14.45;100.00;96170.88;4965178;28;20307;-75
2022/06/25 01:54:14;;;;;;;1.10;0.70;;;;;;;14.51;100.00;96171.72;4948435;28;20204;-75
2022/06/25 01:56:43;;;;;;;1.27;0.77;;;;;;;14.51;100.00;96177.16;4962661;28;20260;-75
2022/06/25 01:59:10;;;;;;;2.03;1.20;;;;;;;14.55;100.00;96170.09;4948671;28;20201;-75
2022/06/25 02:01:38;;;;;;;3.00;0.83;;;;;;;14.55;100.00;96170.09;4952073;28;20205;-75
2022/06/25 02:04:06;;;;;;;0.80;0.67;;;;;;;14.55;100.00;96179.09;4961668;28;20300;-75
2022/06/25 02:06:33;;;;;;;0.73;0.73;;;;;;;14.53;100.00;96172.28;4947121;28;20209;-75
2022/06/25 02:09:00;;;;;;;2.60;0.80;;;;;;;14.57;100.00;96178.84;4965844;28;20236;-75
2022/06/25 02:11:28;;;;;;;2.10;0.80;;;;;;;14.52;100.00;96171.47;4956574;28;20235;-75
2022/06/25 02:13:56;;;;;;;1.60;0.80;;;;;;;14.54;100.00;96163.88;4947256;28;20232;-75
2022/06/25 02:16:23;;;;;;;0.70;0.70;;;;;;;14.69;100.00;96172.16;4943502;28;20221;-75
2022/06/25 02:18:50;;;;;;;0.80;0.80;;;;;;;14.57;100.00;96181.53;4944628;28;20276;-75
2022/06/25 02:21:19;;;;;;;2.40;0.90;;;;;;;14.54;100.00;96182.91;4946728;28;20217;-75
2022/06/25 02:23:46;;;;;;;3.20;0.70;;;;;;;14.61;100.00;96174.53;4960882;28;20259;-76
2022/06/25 02:26:13;;;;;;;4.13;0.90;;;;;;;14.59;100.00;96177.50;4961293;28;20206;-75
2022/06/25 02:28:40;;;;;;;0.80;0.80;;;;;;;14.56;100.00;96175.28;4948292;28;20281;-75
2022/06/25 02:31:08;;;;;;;6.20;1.03;;;;;;;14.57;100.00;96176.13;4960701;28;20213;-75
2022/06/25 02:33:36;;;;;;;0.97;0.80;;;;;;;14.58;100.00;96175.03;4947254;28;20216;-75
2022/06/25 02:36:04;;;;;;;1.00;0.70;;;;;;;14.52;100.00;96167.94;4958419;28;20211;-75
2022/06/25 02:38:31;;;;;;;0.87;0.70;;;;;;;14.51;100.00;96177.16;4946505;28;20201;-75
2022/06/25 02:40:58;;;;;;;4.60;0.70;;;;;;;14.48;100.00;96185.81;4943880;28;20206;-75
2022/06/25 02:43:30;;;;;;;1.43;0.80;;;;;;;14.49;100.00;96179.31;4951472;28;20303;-75
2022/06/25 02:46:15;;;;;;;1.83;0.73;;;;;;;14.44;100.00;96190.16;4948633;28;20229;-75
2022/06/25 02:48:42;;;;;;;1.70;0.87;;;;;;;14.28;100.00;96189.16;4947812;28;20209;-75
2022/06/25 02:51:11;;;;;;;0.77;0.77;;;;;;;14.26;100.00;96181.25;4952164;28;20225;-75
2022/06/25 02:53:38;;;;;;;0.70;0.70;;;;;;;14.29;100.00;96175.28;4946298;28;20201;-75
2022/06/25 02:58:58;;;;;;;1.10;0.93;;;;;;;14.30;100.00;96184.25;4948584;28;20240;-75
2022/06/25 03:01:31;;;;;;;1.43;0.83;;;;;;;14.22;100.00;96187.44;4963567;28;20201;-75
2022/06/25 03:03:58;;;;;;;2.97;0.77;;;;;;;14.18;100.00;96189.06;4947150;28;20268;-75
2022/06/25 03:06:27;;;;;;;0.60;0.60;;;;;;;14.19;100.00;96190.69;4945535;28;20207;-75
2022/06/25 03:08:56;;;;;;;1.07;0.70;;;;;;;14.16;100.00;96197.44;4947855;28;20256;-75
2022/06/25 03:11:23;;;;;;;0.80;0.80;;;;;;;14.13;100.00;96181.66;4950105;28;20220;-75
2022/06/25 03:13:51;;;;;;;1.27;0.90;;;;;;;14.14;100.00;96182.47;4951642;28;20236;-75
2022/06/25 03:16:18;;;;;;;1.07;0.77;;;;;;;14.00;100.00;96182.91;4942514;28;20201;-75
2022/06/25 03:18:50;;;;;;;1.03;0.70;;;;;;;14.01;100.00;96200.00;4948298;28;20212;-75
2022/06/25 03:21:44;;;;;;;1.27;1.00;;;;;;;13.96;100.00;96191.78;4941962;28;20206;-75
2022/06/25 03:24:13;;;;;;;1.00;0.87;;;;;;;13.96;100.00;96189.91;4947657;28;20209;-75
2022/06/25 03:26:40;;;;;;;2.70;0.90;;;;;;;13.98;100.00;96186.94;4946070;28;20221;-75
2022/06/25 03:29:07;;;;;;;1.63;0.87;;;;;;;13.96;100.00;96186.38;4962487;28;20209;-75
2022/06/25 03:31:37;;;;;;;1.37;0.90;;;;;;;14.01;100.00;96194.59;4951559;28;20224;-75
2022/06/25 03:34:24;;;;;;;0.90;0.90;;;;;;;14.00;100.00;96199.19;4946603;28;20220;-75
2022/06/25 03:36:52;;;;;;;1.53;1.00;;;;;;;13.96;100.00;96197.22;4942755;28;20206;-75
2022/06/25 03:39:19;;;;;;;2.63;0.80;;;;;;;13.91;100.00;96189.03;4962001;28;20216;-75
2022/06/25 03:41:47;;;;;;;1.83;0.93;;;;;;;13.80;100.00;96193.53;4952665;28;20201;-75
2022/06/25 03:44:27;;;;;;;3.27;0.90;;;;;;;13.80;100.00;96196.25;4944089;28;20319;-75
2022/06/25 03:47:07;;;;;;;3.00;1.00;;;;;;;13.83;100.00;96197.63;4961132;28;20209;-75
2022/06/25 03:49:37;;;;;;;1.43;0.90;;;;;;;13.79;100.00;96205.47;4960506;28;20202;-74
2022/06/25 03:52:09;;;;;;;1.00;0.70;;;;;;;13.76;100.00;96205.97;4941037;28;20228;-75
2022/06/25 03:54:36;;;;;;;3.40;0.80;;;;;;;13.70;100.00;96198.00;4945921;29;20213;-75
2022/06/25 03:57:04;;;;;;;1.20;0.90;;;;;;;13.73;100.00;96208.38;4943398;28;20240;-75
2022/06/25 03:59:45;;;;;;;1.00;0.90;;;;;;;13.72;100.00;96207.53;4959191;28;20280;-75
2022/06/25 04:02:25;;;;;;;3.73;1.00;;;;;;;13.76;100.00;96207.88;4940227;28;20212;-76
2022/06/25 04:05:13;;;;;;;0.80;0.80;;;;;;;13.70;100.00;96208.88;4966758;28;20220;-75
2022/06/25 04:07:42;;;;;;;1.40;1.00;;;;;;;13.70;100.00;96203.44;4959675;28;20296;-75
2022/06/25 04:10:09;;;;;;;2.70;1.40;;;;;;;13.69;100.00;96190.97;4963383;28;20211;-75
2022/06/25 04:12:36;;;;;;;2.30;1.03;;;;;;;13.63;100.00;96188.19;4940075;28;20244;-74
2022/06/25 04:15:04;;;;;;;2.27;1.03;;;;;;;13.59;100.00;96203.34;4961490;28;20233;-75
2022/06/25 04:17:32;;;;;;;1.73;0.90;;;;;;;13.49;100.00;96192.34;4946775;28;20213;-75
2022/06/25 04:20:00;;;;;;;1.40;0.90;;;;;;;13.40;100.00;96193.03;4945040;28;20201;-75
2022/06/25 04:22:30;;;;;;;2.20;1.10;;;;;;;13.45;100.00;96196.63;4946631;28;20201;-74
2022/06/25 04:24:57;;;;;;;1.40;0.97;;;;;;;13.38;100.00;96193.28;4950319;28;20235;-74
2022/06/25 04:30:11;;;;;;;1.70;1.17;;;;;;;13.34;100.00;96199.47;4946293;28;20208;-74
2022/06/25 04:32:41;;;;;;;1.00;1.00;;;;;;;13.39;100.00;96197.66;4963179;28;20235;-74
2022/06/25 04:35:31;;;;;;;0.90;0.90;;;;;;;13.25;100.00;96186.34;4948712;28;20212;-74
2022/06/25 04:38:03;;;;;;;4.03;1.10;;;;;;;13.24;100.00;96181.19;4960082;28;20201;-75
2022/06/25 04:40:31;;;;;;;4.80;1.20;;;;;;;13.33;100.00;96184.28;4942538;28;20244;-75
2022/06/25 04:42:58;;;;;;;2.67;1.03;;;;;;;13.30;100.00;96180.16;4948298;28;20228;-74
2022/06/25 04:45:25;;;;;;;2.60;1.27;;;;;;;13.41;100.00;96189.25;4944138;28;20220;-74
2022/06/25 04:48:13;;;;;;;1.63;1.30;;;;;;;13.40;100.00;96188.44;4962586;28;20287;-75
2022/06/25 04:50:59;;;;;;;1.63;1.03;;;;;;;13.47;100.00;96199.91;4961177;28;20225;-75
2022/06/25 04:53:28;;;;;;;1.00;0.90;;;;;;;13.53;100.00;96198.06;4962391;28;20213;-74
2022/06/25 04:55:55;;;;;;;1.73;1.13;;;;;;;13.54;100.00;96195.13;4963602;28;20217;-75
2022/06/25 04:58:22;;;;;;;1.23;0.90;;;;;;;13.71;100.00;96197.75;4940377;28;20249;-75
2022/06/25 05:01:08;;;;;;;0.93;0.80;;;;;;;13.72;100.00;96202.13;4964964;28;20216;-75
2022/06/25 05:03:35;;;;;;;0.90;0.90;;;;;;;13.75;100.00;96200.81;4939435;28;20216;-74
2022/06/25 05:06:21;;;;;;;1.93;0.90;;;;;;;13.74;100.00;96196.44;4944906;28;20232;-74
2022/06/25 05:08:50;;;;;;;1.37;1.07;;;;;;;13.73;100.00;96197.50;4948221;28;20307;-74
2022/06/25 05:11:17;;;;;;;1.93;1.33;;;;;;;13.73;100.00;96205.66;4945866;28;20263;-75
2022/06/25 05:13:44;;;;;;;1.10;0.80;;;;;;;13.77;100.00;96202.19;4944071;28;20352;-76
2022/06/25 05:16:11;;;;;;;1.80;0.80;;;;;;;13.71;100.00;96194.22;4961577;28;20265;-76
2022/06/25 05:18:39;;;;;;;2.20;0.90;;;;;;;13.73;100.00;96201.06;4958901;28;20213;-76
2022/06/25 05:21:06;;;;;;;1.33;0.90;;;;;;;13.73;100.00;96198.34;4941201;28;20319;-75
2022/06/25 05:23:33;;;;;;;2.33;1.13;;;;;;;13.61;100.00;96198.47;4960720;28;20209;-74
2022/06/25 05:26:03;;;;;;;1.17;1.13;;;;;;;13.64;100.00;96210.69;4954211;28;20205;-74
2022/06/25 05:28:30;;;;;;;5.17;0.80;;;;;;;13.64;100.00;96197.97;4965392;28;20201;-74
2022/06/25 05:30:57;;;;;;;1.30;1.20;;;;;;;13.72;100.00;96204.00;4960698;28;20205;-75
2022/06/25 05:33:24;;;;;;;3.10;1.10;;;;;;;13.72;100.00;96193.16;4947265;28;20300;-74
2022/06/25 05:35:51;;;;;;;4.60;1.30;;;;;;;13.72;100.00;96196.69;4952834;28;20213;-74
2022/06/25 05:38:18;;;;;;;1.37;0.87;;;;;;;13.69;100.00;96201.81;4945477;28;20204;-75
2022/06/25 05:40:45;;;;;;;1.07;0.90;;;;;;;13.68;100.00;96192.03;4945876;28;20240;-76
2022/06/25 05:43:14;;;;;;;1.13;0.90;;;;;;;13.66;100.00;96184.16;4963476;28;20193;-75
2022/06/25 05:45:41;;;;;;;0.90;0.90;;;;;;;13.68;100.00;96183.91;4947352;28;20596;-74
2022/06/25 05:48:08;;;;;;;1.83;1.00;;;;;;;13.67;100.00;96176.84;4965490;28;20224;-75
2022/06/25 05:50:36;;;;;;;1.10;0.90;;;;;;;13.67;100.00;96176.84;4949518;28;20335;-74
2022/06/25 05:53:03;;;;;;;4.57;1.10;;;;;;;13.74;100.00;96174.75;4964960;28;20231;-75
2022/06/25 05:55:37;;;;;;;2.33;0.90;;;;;;;13.78;100.00;96173.97;4967566;28;20529;-74
2022/06/25 05:58:04;;;;;;;1.47;1.00;;;;;;;13.76;100.00;96165.28;4952421;28;20244;-74
2022/06/25 06:00:33;;;;;;;0.97;0.93;;;;;;;13.67;100.00;96161.38;4952965;28;20313;-74
2022/06/25 06:03:00;;;;;;;3.63;1.50;;;;;;;13.64;100.00;96159.97;4962230;28;20221;-74
2022/06/25 06:05:27;;;;;;;2.17;1.30;;;;;;;13.70;100.00;96170.88;4966774;28;20208;-75
2022/06/25 06:07:54;;;;;;;1.37;1.10;;;;;;;13.71;100.00;96173.34;4966777;28;20217;-74
2022/06/25 06:10:21;;;;;;;5.43;1.30;;;;;;;13.68;100.00;96163.00;4950963;28;20219;-74
2022/06/25 06:12:48;;;;;;;1.40;1.20;;;;;;;13.62;100.00;96164.84;4948831;28;20248;-75
2022/06/25 06:15:15;;;;;;;1.40;1.20;;;;;;;13.68;100.00;96175.75;4951115;28;20208;-76
2022/06/25 06:17:44;;;;;;;3.13;1.10;;;;;;;13.65;100.00;96171.66;4956713;28;20216;-75
2022/06/25 06:20:11;;;;;;;1.97;1.00;;;;;;;13.61;100.00;96173.22;4962817;28;20288;-74
2022/06/25 06:22:38;;;;;;;1.47;1.10;;;;;;;13.63;100.00;96171.91;4966944;28;20200;-75
2022/06/25 06:25:06;;;;;;;2.53;1.10;;;;;;;13.71;100.00;96162.50;4946382;28;20264;-75
2022/06/25 06:27:33;;;;;;;1.30;1.10;;;;;;;13.75;100.00;96158.22;4962119;28;20200;-75
2022/06/25 06:30:01;;;;;;;1.73;1.20;;;;;;;13.77;100.00;96157.97;4949496;28;20357;-75
2022/06/25 06:32:28;;;;;;;3.20;2.50;;;;;;;13.72;100.00;96145.13;4965454;28;20233;-75
2022/06/25 06:34:56;;;;;;;1.67;1.50;;;;;;;13.75;100.00;96144.63;4945246;28;20213;-75
2022/06/25 06:37:23;;;;;;;2.17;1.67;;;;;;;13.79;100.00;96144.94;4948671;28;20240;-75
2022/06/25 06:39:50;;;;;;;3.50;1.20;;;;;;;13.80;100.00;96136.53;4947778;28;20215;-75
2022/06/25 06:42:17;;;;;;;2.03;1.47;;;;;;;13.82;100.00;96130.88;4960922;28;20212;-75
2022/06/25 06:44:44;;;;;;;1.50;1.40;;;;;;;13.85;100.00;96141.22;4966198;28;20205;-75
2022/06/25 06:47:11;;;;;;;1.07;1.00;;;;;;;13.91;100.00;96140.19;4947156;28;20209;-75
2022/06/25 06:49:38;;;;;;;1.57;1.33;;;;;;;13.90;100.00;96135.84;4944886;28;20205;-75
2022/06/25 06:52:07;;;;;;;1.50;1.37;;;;;;;13.86;100.00;96148.28;4940095;28;20221;-74
2022/06/25 06:54:34;;;;;;;1.67;1.20;;;;;;;13.75;100.00;96128.34;4946711;28;20221;-75
2022/06/25 06:57:01;;;;;;;2.93;1.27;;;;;;;13.76;100.00;96131.88;4944675;29;20237;-74
2022/06/25 06:59:29;;;;;;;1.30;1.20;;;;;;;13.76;100.00;96130.00;4945714;28;20305;-75
2022/06/25 07:01:56;;;;;;;0.90;0.90;;;;;;;13.83;100.00;96127.91;4948532;28;20476;-74
2022/06/25 07:04:23;;;;;;;1.50;0.90;;;;;;;13.93;100.00;96124.47;4963714;28;20284;-74
2022/06/25 07:06:50;;;;;;;3.23;1.13;;;;;;;13.99;100.00;96120.72;4967158;28;20209;-75
2022/06/25 07:09:18;;;;;;;1.47;0.90;;;;;;;13.97;100.00;96101.97;4943080;28;20216;-74
2022/06/25 07:11:45;;;;;;;1.13;0.70;;;;;;;14.05;100.00;96113.44;4949074;28;20229;-75
2022/06/25 07:14:13;;;;;;;1.70;0.97;;;;;;;14.10;100.00;96106.16;4949594;28;20220;-74
2022/06/25 07:16:41;;;;;;;0.60;0.60;;;;;;;14.21;100.00;96110.59;4967876;28;20212;-75
2022/06/25 07:19:10;;;;;;;1.13;0.90;;;;;;;14.65;100.00;96110.41;4946455;28;20213;-74
2022/06/25 07:21:37;;;;;;;0.80;0.80;;;;;;;15.09;100.00;96103.63;4964307;28;20201;-75
2022/06/25 07:24:05;;;;;;;0.80;0.80;;;;;;;15.46;100.00;96095.34;4948131;28;20298;-75
2022/06/25 07:26:33;;;;;;;0.77;0.73;;;;;;;15.75;100.00;96095.72;4958347;28;20205;-74
2022/06/25 07:29:01;;;;;;;1.27;1.03;;;;;;;16.08;100.00;96090.84;4949792;28;20303;-75
2022/06/25 07:31:28;;;;;;;5.30;1.00;;;;;;;16.35;100.00;96085.97;4964246;28;20225;-75
2022/06/25 07:33:55;;;;;;;0.97;0.90;;;;;;;16.65;100.00;96082.44;4947820;28;20281;-74
2022/06/25 07:36:22;;;;;;;0.70;0.70;;;;;;;16.79;100.00;96072.59;4943506;28;20210;-75
2022/06/25 07:38:50;;;;;;;1.10;0.90;;;;;;;17.05;100.00;96065.16;4941339;28;20204;-74
2022/06/25 07:41:17;;;;;;;1.53;0.80;;;;;;;17.33;100.00;96064.53;4963279;28;20216;-75
2022/06/25 07:43:45;;;;;;;0.93;0.83;;;;;;;17.58;100.00;96070.94;4944124;28;20216;-75
2022/06/25 07:46:12;;;;;;;0.60;0.60;;;;;;;17.73;100.00;96076.34;4945058;28;20343;-75
2022/06/25 07:48:39;;;;;;;1.70;0.67;;;;;;;17.88;100.00;96075.44;4942279;29;20215;-74
2022/06/25 07:53:51;;;;;;;1.47;1.10;;;;;;;18.22;100.00;96070.00;4941116;28;20225;-75
2022/06/25 07:56:18;;;;;;;5.80;1.30;;;;;;;18.46;100.00;96073.63;4941397;28;20229;-76
2022/06/25 07:58:47;;;;;;;3.20;1.43;;;;;;;18.77;100.00;96072.28;4946806;28;20293;-75
2022/06/25 08:01:14;;;;;;;0.90;0.70;;;;;;;18.65;100.00;96060.91;4962187;28;20209;-76
2022/06/25 08:03:41;;;;;;;2.20;0.70;;;;;;;18.48;100.00;96060.50;4949748;28;20220;-74
2022/06/25 08:06:08;;;;;;;1.10;1.00;;;;;;;18.53;100.00;96046.78;4946201;28;20264;-75
2022/06/25 08:08:36;;;;;;;2.93;1.10;;;;;;;18.30;100.00;96044.78;4948501;28;20280;-75
2022/06/25 08:11:03;;;;;;;0.80;0.80;;;;;;;18.32;100.00;96050.78;4947320;28;20211;-75
2022/06/25 08:13:30;;;;;;;2.20;0.90;;;;;;;18.57;100.00;96039.66;4956933;28;20225;-74
2022/06/25 08:15:58;;;;;;;1.33;1.10;;;;;;;18.90;100.00;96041.50;4962364;28;20213;-75
2022/06/25 08:18:25;;;;;;;1.63;0.90;;;;;;;18.88;100.00;96038.22;4965819;28;20336;-76
2022/06/25 08:20:52;;;;;;;0.97;0.80;;;;;;;18.98;100.00;96023.63;4947743;28;20214;-75
2022/06/25 08:23:19;;;;;;;2.10;0.90;;;;;;;19.12;100.00;96026.50;4944587;28;20217;-75
2022/06/25 08:25:46;;;;;;;0.77;0.77;;;;;;;19.20;100.00;96025.84;4936596;28;20222;-75
2022/06/25 08:28:13;;;;;;;3.03;1.00;;;;;;;19.46;100.00;96021.69;4942304;28;20236;-75
2022/06/25 08:30:43;;;;;;;1.83;1.45;;;;;;;19.87;98.94;96026.59;4949538;28;20208;-76
2022/06/25 08:33:12;;;;;;;2.42;1.00;;;;;;;20.39;99.12;96018.13;4943838;28;20233;-75
2022/06/25 08:35:39;;;;;;;1.95;1.00;;;;;;;20.86;94.23;96020.81;4940798;28;20209;-76
2022/06/25 08:38:06;;;;;;;3.92;1.40;;;;;;;21.15;88.89;96004.91;4963800;28;20304;-76
2022/06/25 08:40:33;;;;;;;1.40;1.20;;;;;;;21.25;85.29;96006.66;4953889;28;20214;-75
2022/06/25 08:43:02;;;;;;;1.42;0.80;;;;;;;21.34;85.27;96008.38;4940821;28;20217;-76
2022/06/25 08:45:29;;;;;;;1.90;1.10;;;;;;;21.49;85.03;95999.00;4943022;28;20304;-76
2022/06/25 08:48:00;;;;;;;2.38;1.23;;;;;;;21.61;81.46;95995.69;4962235;28;20205;-76
2022/06/25 08:50:29;;;;;;;5.10;1.38;;;;;;;21.93;80.55;96000.19;4956868;28;20279;-76
2022/06/25 08:52:56;;;;;;;1.45;1.00;;;;;;;22.17;83.79;95993.31;4963634;28;20220;-76
2022/06/25 08:55:31;;;;;;;2.95;1.75;;;;;;;22.29;78.86;95987.22;4946679;28;20299;-76
2022/06/25 08:58:00;;;;;;;1.52;0.95;;;;;;;22.33;75.55;95993.75;4959970;28;20232;-76
2022/06/25 09:00:28;;;;;;;2.08;1.00;;;;;;;22.38;77.00;95974.34;4964517;28;20201;-76
2022/06/25 09:02:55;;;;;;;2.90;1.27;;;;;;;22.30;83.64;95975.09;4948836;28;20242;-76
2022/06/25 09:05:30;;;;;;;2.45;1.30;;;;;;;22.35;84.14;95966.75;4943964;29;20208;-76
2022/06/25 09:08:02;;;;;;;1.48;1.15;;;;;;;22.33;86.01;95962.66;4954923;28;20209;-76
2022/06/25 09:10:30;;;;;;;2.00;1.10;;;;;;;22.38;86.18;95968.03;4948804;28;20210;-76
2022/06/25 09:12:59;;;;;;;1.30;0.90;;;;;;;22.42;85.85;95955.28;4954718;28;20237;-76
2022/06/25 09:15:28;;;;;;;1.35;1.00;;;;;;;22.50;84.90;95955.31;4950257;28;20201;-76
2022/06/25 09:17:55;;;;;;;1.48;1.10;;;;;;;22.64;85.28;95952.47;4950895;28;20216;-77
2022/06/25 09:20:23;;;;;;;1.77;1.13;;;;;;;22.69;84.99;95957.84;4948165;28;20245;-76
2022/06/25 09:22:58;;;;;;;1.83;1.20;;;;;;;22.80;84.41;95950.16;4956215;28;20234;-76
2022/06/25 09:25:30;;;;;;;2.08;1.00;;;;;;;22.62;84.49;95944.56;4939315;28;20228;-77
2022/06/25 09:27:57;;;;;;;1.30;1.05;;;;;;;22.75;83.88;95944.78;4950206;28;20213;-76
2022/06/25 09:30:28;;;;;;;1.00;0.90;;;;;;;22.96;72.40;95941.16;4964514;28;20198;-76
2022/06/25 09:32:58;;;;;;;2.80;1.05;;;;;;;23.21;72.18;95939.63;4940893;28;20229;-76
2022/06/25 09:35:34;;;;;;;0.80;0.80;;;;;;;23.56;71.37;95936.94;4953726;28;20283;-75
2022/06/25 09:38:07;;;;;;;0.70;0.70;;;;;;;23.77;67.06;95933.22;4950881;28;20323;-76
2022/06/25 09:40:36;;;;;;;0.80;0.80;;;;;;;23.88;65.32;95928.19;4945861;28;20299;-76
2022/06/25 09:43:12;;;;;;;0.98;0.73;;;;;;;23.84;62.32;95937.41;4965728;28;20205;-76
2022/06/25 09:45:40;;;;;;;1.60;0.85;;;;;;;23.87;61.68;95928.50;4940050;28;20223;-75
2022/06/25 09:48:10;;;;;;;1.77;1.10;;;;;;;23.86;62.95;95926.88;4956872;28;20288;-75
2022/06/25 09:50:37;;;;;;;1.30;1.10;;;;;;;23.89;61.84;95918.78;4953364;28;20201;-77
2022/06/25 09:53:07;;;;;;;1.20;1.08;;;;;;;23.89;62.08;95918.78;4953684;28;20282;-77
2022/06/25 09:55:37;;;;;;;4.32;2.83;;;;;;;23.82;61.95;95923.19;4950292;28;20232;-77
2022/06/25 09:58:05;;;;;;;3.33;2.30;;;;;;;24.02;60.84;95917.78;4940455;28;20284;-76
2022/06/25 10:00:34;;;;;;;2.42;1.88;;;;;;;24.20;66.24;95912.25;4952857;28;20312;-77
2022/06/25 10:03:01;;;;;;;1.77;1.63;;;;;;;24.17;63.56;95902.66;4961826;28;20271;-77
2022/06/25 10:05:35;;;;;;;1.02;1.00;;;;;;;24.13;63.34;95907.22;4945878;28;20215;-76
2022/06/25 10:08:06;;;;;;;1.60;1.50;;;;;;;23.88;64.44;95900.63;4947116;28;20205;-76
2022/06/25 10:10:39;;;;;;;2.10;1.27;;;;;;;23.79;68.07;95901.75;4963207;28;20219;-78
2022/06/25 10:13:07;;;;;;;1.10;0.98;;;;;;;24.02;68.23;95911.47;4969128;28;20254;-77
2022/06/25 10:15:34;;;;;;;1.13;1.02;;;;;;;24.13;66.94;95905.28;4962144;28;20288;-77
2022/06/25 10:18:03;;;;;;;1.52;1.10;;;;;;;24.18;68.42;95912.56;4937412;28;20217;-77
2022/06/25 10:20:32;;;;;;;2.95;1.77;;;;;;;24.19;69.17;95908.69;4964150;28;20232;-77
2022/06/25 10:23:02;;;;;;;2.33;2.13;;;;;;;24.41;70.73;95902.19;4953969;28;20209;-77
2022/06/25 10:25:30;;;;;;;1.20;1.10;;;;;;;24.48;68.26;95888.69;4947362;28;20227;-78
2022/06/25 10:28:08;;;;;;;1.48;1.08;;;;;;;;;;4961316;28;20209;-78
2022/06/25 10:30:53;;;;;;;1.00;0.93;;;;;;;24.34;72.15;95894.38;4949008;28;20219;-75
2022/06/25 10:33:22;;;;;;;1.83;1.13;;;;;;;24.50;72.99;95895.47;4941579;28;20319;-78
2022/06/25 10:35:50;;;;;;;1.20;1.10;;;;;;;24.71;71.17;95883.72;4969138;28;20321;-77
2022/06/25 10:38:19;;;;;;;1.65;1.15;;;;;;;24.72;69.24;95880.63;4947404;28;20214;-77
2022/06/25 10:40:52;;;;;;;1.35;1.20;;;;;;;24.81;69.51;95877.81;4960776;28;20216;-77
2022/06/25 10:43:45;;;;;;;1.52;0.93;;;;;;;24.70;69.40;95888.41;4965067;28;20202;-77
2022/06/25 10:46:30;;;;;;;1.50;1.00;;;;;;;24.56;68.55;95876.78;4950746;28;20234;-77
2022/06/25 10:49:03;;;;;;;1.50;1.05;;;;;;;24.59;69.34;95869.78;4949145;28;20216;-78
2022/06/25 10:51:40;;;;;;;1.17;1.08;;;;;;;24.78;69.24;95867.44;4945175;28;20232;-77
2022/06/25 10:54:12;;;;;;;1.00;1.00;;;;;;;24.83;69.85;95870.03;4947261;28;20229;-77
2022/06/25 10:56:45;;;;;;;1.20;0.90;;;;;;;24.81;69.05;95862.06;4943902;28;20235;-76
2022/06/25 10:59:49;;;;;;;1.60;0.93;;;;;;;25.10;68.22;95863.22;4962552;28;20219;-78
2022/06/25 11:02:23;;;;;;;1.80;1.00;;;;;;;25.15;67.65;95854.75;4942768;28;20240;-77
2022/06/25 11:04:53;;;;;;;1.08;0.90;;;;;;;25.08;66.25;95851.72;4955029;28;20252;-78
2022/06/25 11:07:22;;;;;;;1.90;1.00;;;;;;;25.03;68.48;95858.22;4965024;28;20201;-77
2022/06/25 11:09:54;;;;;;;1.55;1.13;;;;;;;25.19;65.03;95855.69;4948501;28;20213;-77
2022/06/25 11:12:22;;;;;;;1.50;1.10;;;;;;;25.40;65.71;95850.19;4949401;28;20209;-77
2022/06/25 11:14:58;;;;;;;1.50;1.00;;;;;;;25.34;66.65;95846.81;4948436;28;20221;-77
2022/06/25 11:17:26;;;;;;;1.20;1.10;;;;;;;25.39;64.26;95838.31;4948979;28;20220;-78
2022/06/25 11:19:53;;;;;;;0.90;0.90;;;;;;;25.54;65.15;95837.69;4950551;28;20209;-79
2022/06/25 11:22:20;;;;;;;0.88;0.85;;;;;;;25.79;65.50;95835.06;4943323;28;20213;-77
2022/06/25 11:30:15;;;;;;;1.30;1.20;;;;;;;26.14;63.39;95832.75;4946534;28;20210;-79
2022/06/25 11:32:46;;;;;;;2.05;1.27;;;;;;;26.27;61.80;95835.25;4965695;28;20209;-77
2022/06/25 11:35:13;;;;;;;1.10;1.00;;;;;;;26.26;61.34;95833.63;4966086;28;20208;-77
2022/06/25 11:37:41;;;;;;;0.98;0.98;;;;;;;26.36;61.16;95838.72;4949267;28;20220;-77
2022/06/25 11:40:17;;;;;;;0.98;0.98;;;;;;;26.37;60.13;95834.78;4949295;28;20252;-77
2022/06/25 11:42:47;;;;;;;0.93;0.90;;;;;;;26.48;60.90;95831.56;4957929;28;20279;-77
2022/06/25 11:45:15;;;;;;;1.45;1.00;;;;;;;26.71;61.94;95821.69;4946768;28;20209;-79
2022/06/25 11:47:42;;;;;;;1.35;1.00;;;;;;;26.61;58.30;95836.00;4946388;28;20240;-77
2022/06/25 11:50:11;;;;;;;0.95;0.90;;;;;;;26.55;61.07;95824.31;4946799;28;20224;-76
2022/06/25 11:52:42;;;;;;;1.13;1.02;;;;;;;26.68;59.39;95828.72;4942798;28;20236;-77